IO175 / RA-89077 7700 Squawk Report (22nd of July, 2019)

Aircraft SU95 Reg No. RA-89077 Age 2 years old
Model SSJ-100 Jet engines 2 First flight 08-02-17
Registered 04-05-17 Rollout 2017 Delivered 04-05-17
Construction No. 95124 Line No. 124 Series 95LR
ADSHEX 155BF5 Airline name IrAero Owner N/A
Airfield based Irkutsk-One~Irkutsk~RA First tracked 2017-07-13 04:34:00

Flight history for RA-89077

Route Flight No Date Playback
Sochi (AER) - Barnaul (BAX) - Irkutsk (IKT) IO211 2019-08-24 08:07:00
Irkutsk (IKT) - Barnaul (BAX) - Sochi (AER) IO210 2019-08-24 07:35:00
Poliarny Airport (PYJ) - Irkutsk (IKT) IO406 2019-08-23 10:34:00
Irkutsk (IKT) - Poliarny Airport (PYJ) IO405 2019-08-23 06:31:00
Chulman (NER) - Irkutsk (IKT) IO108 2019-08-23 04:33:00
Irkutsk (IKT) - Chulman (NER) IO403 2019-08-23 02:06:00
Pulkovo (LED) - Barnaul (BAX) - Irkutsk (IKT) IO226 2019-08-22 21:57:00
Irkutsk (IKT) - Barnaul (BAX) - Pulkovo (LED) IO225 2019-08-22 06:38:00
Sochi (AER) - Barnaul (BAX) - Irkutsk (IKT) IO211 2019-08-21 14:27:00
Irkutsk (IKT) - Barnaul (BAX) - Sochi (AER) IO210 2019-08-21 06:01:00
Pashkovskiy (KRR) - Omsk (OMS) - Irkutsk (IKT) IO214 2019-08-20 22:09:00
Irkutsk (IKT) - Omsk (OMS) - Pashkovskiy (KRR) IO213 2019-08-20 10:04:00
???? N/A 2019-08-19 11:40:00
Novy (KHV) - Mukhino (UUD) IO9108 2019-08-19 11:18:00
Mukhino (UUD) - Novy (KHV) IO9107 2019-08-19 05:07:00
Irkutsk (IKT) - Mukhino (UUD) IO107 2019-08-19 03:07:00
???? N/A 2019-08-19 00:58:00
Barnaul (BAX) - Domododevo (DME) IO706 2019-08-18 05:26:00
Domododevo (DME) - Barnaul (BAX) IO705 2019-08-17 21:16:00
Sabetta International (SBT) - Domododevo (DME) IO4284 2019-08-17 16:41:00
Time Lat Lon Altitude Heading Speed Vertical Rate
2019-07-22 22:45:24 GMT 52.961380 101.869278 32,100 303 485 1024
2019-07-22 22:45:15 GMT 52.951355 101.895523 32,000 303 485 576
2019-07-22 22:45:07 GMT 52.941952 101.920166 31,900 303 484 960
2019-07-22 22:43:47 GMT 52.847031 102.167435 30,750 303 474 1216
2019-07-22 22:43:44 GMT 52.842518 102.179207 30,675 303 473 1024
2019-07-22 22:43:30 GMT 52.827026 102.219315 30,450 303 472 1024
2019-07-22 22:43:23 GMT 52.818604 102.241058 30,350 303 471 960
2019-07-22 22:43:13 GMT 52.806297 102.272827 30,175 303 469 1024
2019-07-22 22:43:02 GMT 52.794296 102.303772 30,000 303 466 1216
2019-07-22 22:42:53 GMT 52.782837 102.333328 29,800 303 466 1088
2019-07-22 22:42:41 GMT 52.769897 102.366638 29,625 303 464 960
2019-07-22 22:42:31 GMT 52.758537 102.395874 29,450 303 461 1088
2019-07-22 22:41:39 GMT 52.698811 102.548897 28,525 303 449 1024
2019-07-22 22:41:30 GMT 52.687683 102.577286 28,325 303 447 1472
2019-07-22 22:41:18 GMT 52.675690 102.607880 28,050 303 447 1728
2019-07-22 22:41:09 GMT 52.663971 102.637787 27,750 303 447 1600
2019-07-22 22:40:57 GMT 52.652206 102.667618 27,475 303 447 1088
2019-07-22 22:40:47 GMT 52.640991 102.696190 27,300 303 445 1152
2019-07-22 22:40:38 GMT 52.629864 102.724442 27,100 303 443 1344
2019-07-22 22:40:26 GMT 52.617828 102.755051 26,850 303 441 1344
2019-07-22 22:40:16 GMT 52.605705 102.785728 26,600 304 438 1472
2019-07-22 22:40:05 GMT 52.594952 102.813042 26,350 303 437 1472
2019-07-22 22:39:53 GMT 52.581821 102.846237 26,075 303 435 1472
2019-07-22 22:39:45 GMT 52.572327 102.870331 25,850 303 433 1600
2019-07-22 22:39:34 GMT 52.561012 102.898972 25,575 303 432 1728
2019-07-22 22:39:25 GMT 52.549793 102.927299 25,275 303 431 1728
2019-07-22 22:39:14 GMT 52.538574 102.955788 24,975 303 430 1472
2019-07-22 22:39:03 GMT 52.527542 102.983643 24,725 303 427 1536
2019-07-22 22:38:54 GMT 52.516342 103.012009 24,475 304 425 1536
2019-07-22 22:38:42 GMT 52.504967 103.040695 24,200 304 423 1664
2019-07-22 22:38:33 GMT 52.494259 103.067612 23,900 304 422 1728
2019-07-22 22:38:22 GMT 52.483086 103.095543 23,600 304 420 1600
2019-07-22 22:38:11 GMT 52.471710 103.123703 23,325 304 417 1728
2019-07-22 22:38:00 GMT 52.460274 103.153145 23,000 300 417 1728
2019-07-22 22:37:50 GMT 52.452129 103.181236 22,725 292 415 1792
2019-07-22 22:37:34 GMT 52.443283 103.232117 22,200 280 413 1920
2019-07-22 22:37:27 GMT 52.441635 103.253174 21,975 275 413 2112
2019-07-22 22:37:19 GMT 52.440903 103.276367 21,725 273 412 1984
2019-07-22 22:37:10 GMT 52.440216 103.307571 21,400 273 411 1664
2019-07-22 22:36:59 GMT 52.439484 103.339539 21,100 273 408 1728
2019-07-22 22:36:49 GMT 52.438705 103.373566 20,800 273 404 1728
2019-07-22 22:36:35 GMT 52.437836 103.410851 20,400 273 401 2048
2019-07-22 22:36:26 GMT 52.437195 103.437958 20,100 273 399 2048
2019-07-22 22:36:17 GMT 52.436462 103.468246 19,750 273 397 2176
2019-07-22 22:36:06 GMT 52.435741 103.497879 19,400 273 395 2240
2019-07-22 22:35:55 GMT 52.434532 103.547714 18,800 273 391 1984
2019-07-22 22:35:40 GMT 52.433853 103.575134 18,500 273 389 1600
2019-07-22 22:35:30 GMT 52.433136 103.605156 18,225 273 383 1920
2019-07-22 22:35:21 GMT 52.432392 103.633720 17,875 273 380 2304
2019-07-22 22:35:10 GMT 52.431610 103.664017 17,475 273 378 2304
2019-07-22 22:34:59 GMT 52.430901 103.693436 17,075 273 376 2240
2019-07-22 22:34:49 GMT 52.430145 103.723526 16,675 273 374 2240
2019-07-22 22:34:39 GMT 52.429459 103.751587 16,325 273 371 2368
2019-07-22 22:34:29 GMT 52.428726 103.780441 15,900 273 368 2432
2019-07-22 22:34:18 GMT 52.427994 103.809357 15,475 273 367 2624
2019-07-22 22:34:07 GMT 52.427307 103.838730 15,000 273 365 2688
2019-07-22 22:33:57 GMT 52.426666 103.867340 14,525 273 364 2560
2019-07-22 22:33:46 GMT 52.426060 103.896446 14,075 272 362 2816
2019-07-22 22:33:36 GMT 52.425549 103.925171 13,575 272 361 2688
2019-07-22 22:33:25 GMT 52.425156 103.954086 13,100 271 359 2560
2019-07-22 22:33:16 GMT 52.424896 103.981125 12,700 271 356 2624
2019-07-22 22:33:05 GMT 52.424881 104.009781 12,225 270 355 2560
2019-07-22 22:32:58 GMT 52.425064 104.029617 11,900 269 353 1984
2019-07-22 22:32:54 GMT 52.425175 104.037621 11,800 269 351 1664
2019-07-22 22:32:49 GMT 52.425549 104.052689 11,650 268 347 1344
2019-07-22 22:32:44 GMT 52.425919 104.064621 11,550 267 342 1344
2019-07-22 22:32:38 GMT 52.426575 104.080353 11,425 266 335 1344
2019-07-22 22:32:33 GMT 52.427177 104.091141 11,325 265 331 1344
2019-07-22 22:32:27 GMT 52.428406 104.109116 11,150 262 318 1984
2019-07-22 22:32:24 GMT 52.429001 104.116745 11,075 263 322 1728
2019-07-22 22:32:16 GMT 52.430603 104.134445 10,825 261 315 2112
2019-07-22 22:32:13 GMT 52.431229 104.140579 10,750 261 313 2176
2019-07-22 22:32:07 GMT 52.432892 104.156799 10,475 262 307 2688
2019-07-22 22:32:02 GMT 52.433743 104.164909 10,325 262 307 2752
2019-07-22 22:31:56 GMT 52.435089 104.181862 10,000 266 304 2624
2019-07-22 22:31:53 GMT 52.435417 104.188683 9,850 268 304 2624
2019-07-22 22:31:42 GMT 52.434128 104.212494 9,400 285 296 2752
2019-07-22 22:31:34 GMT 52.429970 104.230751 9,000 297 292 2752
2019-07-22 22:31:31 GMT 52.428955 104.233627 8,925 302 290 2752
2019-07-22 22:31:24 GMT 52.422729 104.247131 8,575 315 284 2880
2019-07-22 22:31:21 GMT 52.420258 104.251022 8,450 320 282 2880
2019-07-22 22:31:11 GMT 52.409069 104.262840 7,950 338 278 2496
2019-07-22 22:31:01 GMT 52.396172 104.268417 7,525 352 272 1984
2019-07-22 22:30:50 GMT 52.383499 104.271240 7,225 353 261 1728
2019-07-22 22:30:40 GMT 52.370865 104.273987 6,900 353 250 1664
2019-07-22 22:30:29 GMT 52.359283 104.276581 6,625 353 238 1280
2019-07-22 22:30:18 GMT 52.348068 104.279099 6,400 353 226 1344
2019-07-22 22:30:09 GMT 52.337936 104.281441 6,175 352 215 1216
2019-07-22 22:29:58 GMT 52.327835 104.283752 5,975 352 199 1152
2019-07-22 22:29:48 GMT 52.318523 104.285912 5,775 352 188 1024
2019-07-22 22:29:36 GMT 52.309727 104.288269 5,575 350 173 1088
2019-07-22 22:29:26 GMT 52.301624 104.291092 5,375 345 163 1472
2019-07-22 22:29:17 GMT 52.294781 104.296036 5,125 321 157 1792
2019-07-22 22:29:05 GMT 52.290253 104.305649 4,800 294 159 1984
2019-07-22 22:28:56 GMT 52.287231 104.317245 4,375 293 157 1984
2019-07-22 22:28:44 GMT 52.284309 104.328758 4,100 293 155 2176
2019-07-22 22:28:33 GMT 52.281189 104.341003 3,700 293 154 2176
2019-07-22 22:28:24 GMT 52.278442 104.351753 3,325 293 154 2048
2019-07-22 22:28:13 GMT 52.275604 104.362869 2,975 293 151 2496
2019-07-22 22:28:03 GMT 52.272812 104.373856 2,500 294 153 2880
2019-07-22 22:27:53 GMT 52.270065 104.383850 2,075 294 157 1600
2019-07-22 22:27:42 GMT 52.267113 104.394775 0 292 145
2019-07-22 22:27:38 GMT 52.265980 104.399033 0 292 125
2019-07-22 22:27:33 GMT 52.264732 104.403687 0 292 105
2019-07-22 22:27:22 GMT 52.263199 104.409431 0 292 52
2019-07-22 22:27:11 GMT 52.262558 104.411850 0 298 18
2019-07-22 22:27:00 GMT 52.262375 104.412537 0 298 0
2019-07-22 22:26:45 GMT 52.262375 104.412560 0 298 0
2019-07-22 22:26:29 GMT 52.262383 104.412552 0 298 0
2019-07-22 22:26:19 GMT 52.262383 104.412529 0 298 0
2019-07-22 22:26:09 GMT 52.262386 104.412560 0 298 0
2019-07-22 22:25:59 GMT 52.262348 104.412689 0 303 5

Making use of Plane Finder data

You are free to use the raw flight data, aircraft information and images provided in this report for your own purposes provided the data is correctly attributed to Plane Finder. We ask that you please credit Plane Finder and link to planefinder.net in close proximity to the content.

Optionally one of the following logos (no smaller then 150x24px) can be used and must link to planefinder.net

Embedding the Plane Finder map

You are welcome to embed the Plane Finder playback map on your website to offer visitors a more interactive experience. We suggest using the following HTML code:

<iframe src="//planefinder.net/data/report/IO175-RA-89077-7700-squawk-2019-07-22/map" width="800" height="600" seamless="seamless"></iframe>

Where our data comes from

Plane Finder has a global network of data feeds and antenna radars that receive data broadcast directly from aircraft. The primary technologies used are ADS-B and MLAT. We also show feeds from the FAA and a FLARM glider feed.

Click here to find out more about the Plane Finder network.

How we collect our data